Time;durP1;ratioP1;P1;durP2;ratioP2;P2;SDS_P1;SDS_P2;PMS_P1;PMS_P2;Temp;Humidity;BMP_temperature;BMP_pressure;BME280_temperature;BME280_humidity;BME280_pressure;Samples;Min_cycle;Max_cycle;Signal;HPM_P1;HPM_P2
2021/08/09 00:00:10;;;;;;;;;;;;;;;16.95;76.21;99834.59;5014017;28;1890;-60
2021/08/09 00:02:37;;;;;;;;;;;;;;;16.88;76.51;99830.00;5013825;28;810;-60
2021/08/09 00:05:04;;;;;;;;;;;;;;;16.84;76.68;99828.56;5013749;28;815;-60
2021/08/09 00:07:31;;;;;;;;;;;;;;;16.79;76.66;99834.66;5013747;28;811;-60
2021/08/09 00:09:57;;;;;;;;;;;;;;;16.71;76.88;99839.69;5013709;28;803;-60
2021/08/09 00:12:24;;;;;;;;;;;;;;;16.63;77.16;99843.91;5013728;28;818;-60
2021/08/09 00:14:51;;;;;;;;;;;;;;;16.54;77.05;99848.13;5013543;28;1402;-60
2021/08/09 00:17:17;;;;;;;;;;;;;;;16.47;77.34;99848.34;5013007;28;910;-60
2021/08/09 00:19:43;;;;;;;;;;;;;;;16.45;77.50;99848.00;5013334;28;1981;-60
2021/08/09 00:22:09;;;;;;;;;;;;;;;16.43;77.66;99839.28;5013730;28;846;-60
2021/08/09 00:24:36;;;;;;;;;;;;;;;16.40;77.61;99842.94;5013369;28;894;-60
2021/08/09 00:27:03;;;;;;;;;;;;;;;16.38;77.95;99839.81;5013340;28;894;-60
2021/08/09 00:29:30;;;;;;;;;;;;;;;16.41;77.71;99844.53;5013314;28;873;-60
2021/08/09 00:31:56;;;;;;;;;;;;;;;16.44;77.77;99845.63;5013233;28;819;-60
2021/08/09 00:34:23;;;;;;;;;;;;;;;16.48;77.83;99830.34;5013231;28;882;-60
2021/08/09 00:36:49;;;;;;;;;;;;;;;16.56;77.47;99833.72;5013248;28;834;-60
2021/08/09 00:39:15;;;;;;;;;;;;;;;16.64;76.96;99831.50;5013065;28;1890;-60
2021/08/09 00:41:42;;;;;;;;;;;;;;;16.66;76.57;99826.25;5013043;28;897;-60
2021/08/09 00:44:09;;;;;;;;;;;;;;;16.59;76.44;99820.91;5013063;28;807;-60
2021/08/09 00:46:36;;;;;;;;;;;;;;;16.46;76.58;99829.25;5013046;28;826;-60
2021/08/09 00:49:02;;;;;;;;;;;;;;;16.37;76.45;99829.09;5012859;28;807;-60
2021/08/09 00:51:28;;;;;;;;;;;;;;;16.21;76.33;99825.13;5012973;28;890;-60
2021/08/09 00:53:55;;;;;;;;;;;;;;;16.03;76.55;99834.00;5013068;28;827;-60
2021/08/09 00:56:21;;;;;;;;;;;;;;;15.85;76.83;99825.31;5012767;28;791;-60
2021/08/09 00:58:48;;;;;;;;;;;;;;;15.64;77.32;99835.78;5012787;28;854;-60
2021/08/09 01:01:14;;;;;;;;;;;;;;;15.52;78.00;99836.47;5012694;28;1952;-60
2021/08/09 01:03:41;;;;;;;;;;;;;;;15.50;78.13;99827.75;5012686;28;849;-60
2021/08/09 01:06:08;;;;;;;;;;;;;;;15.67;77.49;99834.88;5012628;28;898;-60
2021/08/09 01:08:53;;;;;;;;;;;;;;;15.90;75.83;99830.38;5012876;28;823;-59
2021/08/09 01:11:25;;;;;;;;;;;;;;;15.77;76.13;99824.72;5012548;28;860;-59
2021/08/09 01:13:51;;;;;;;;;;;;;;;15.60;76.57;99821.16;5012530;28;1030;-60
2021/08/09 01:16:21;;;;;;;;;;;;;;;15.53;76.95;99821.31;5012182;28;1290;-60
2021/08/09 01:18:48;;;;;;;;;;;;;;;15.56;77.00;99816.88;5012394;28;937;-60
2021/08/09 01:21:17;;;;;;;;;;;;;;;15.62;77.02;99823.47;5012309;28;1960;-60
2021/08/09 01:23:50;;;;;;;;;;;;;;;15.64;76.81;99830.19;5010917;28;1303;-60
2021/08/09 01:26:17;;;;;;;;;;;;;;;15.74;76.75;99822.03;5012334;28;1005;-60
2021/08/09 01:28:45;;;;;;;;;;;;;;;15.87;76.45;99829.25;5012051;28;854;-60
2021/08/09 01:31:12;;;;;;;;;;;;;;;15.94;76.26;99822.69;5012252;28;819;-60
2021/08/09 01:33:40;;;;;;;;;;;;;;;16.00;76.15;99826.53;5012263;28;823;-60
2021/08/09 01:36:07;;;;;;;;;;;;;;;15.97;76.25;99830.16;5010908;28;882;-60
2021/08/09 01:38:35;;;;;;;;;;;;;;;15.96;76.11;99822.25;5012150;28;819;-60
2021/08/09 01:41:02;;;;;;;;;;;;;;;16.01;76.14;99833.66;5012333;28;1947;-60
2021/08/09 01:43:29;;;;;;;;;;;;;;;16.08;75.90;99824.31;5010825;28;1168;-60
2021/08/09 01:45:57;;;;;;;;;;;;;;;16.16;76.08;99824.91;5012096;28;835;-60
2021/08/09 01:48:24;;;;;;;;;;;;;;;16.26;76.03;99815.47;5011994;28;791;-60
2021/08/09 01:50:51;;;;;;;;;;;;;;;16.31;75.80;99815.69;5012258;28;870;-60
2021/08/09 01:53:18;;;;;;;;;;;;;;;16.32;75.88;99811.69;5012125;28;835;-60
2021/08/09 01:55:46;;;;;;;;;;;;;;;16.31;76.06;99815.69;5011914;28;863;-60
2021/08/09 01:58:13;;;;;;;;;;;;;;;16.32;76.19;99819.25;5011954;28;894;-60
2021/08/09 02:00:40;;;;;;;;;;;;;;;16.39;76.17;99819.06;5011833;28;1890;-60
2021/08/09 02:03:07;;;;;;;;;;;;;;;16.42;76.29;99815.38;5011807;28;832;-60
2021/08/09 02:05:34;;;;;;;;;;;;;;;16.46;76.13;99815.28;5011886;28;807;-60
2021/08/09 02:08:00;;;;;;;;;;;;;;;16.48;76.06;99812.84;5011812;28;827;-60
2021/08/09 02:10:29;;;;;;;;;;;;;;;16.48;75.68;99816.41;5011826;28;839;-60
2021/08/09 02:13:05;;;;;;;;;;;;;;;16.50;75.68;99818.75;5011911;28;881;-60
2021/08/09 02:15:53;;;;;;;;;;;;;;;16.45;75.46;99808.94;5011773;28;1415;-60
2021/08/09 02:18:42;;;;;;;;;;;;;;;16.43;75.55;99805.81;4981624;28;1401;-60
2021/08/09 02:21:11;;;;;;;;;;;;;;;16.41;75.63;99805.47;5003926;28;1935;-60
2021/08/09 02:24:10;;;;;;;;;;;;;;;16.41;75.47;99808.25;5011417;28;1074;-60
2021/08/09 02:26:41;;;;;;;;;;;;;;;16.41;75.49;99805.47;4951443;29;1170;-60
2021/08/09 02:29:11;;;;;;;;;;;;;;;16.36;75.74;99806.00;4951291;29;875;-60
2021/08/09 02:31:40;;;;;;;;;;;;;;;16.32;75.81;99808.09;4951149;29;1048;-60
2021/08/09 02:34:06;;;;;;;;;;;;;;;16.29;75.97;99809.00;4951289;29;881;-60
2021/08/09 02:36:33;;;;;;;;;;;;;;;16.24;76.15;99810.31;4951120;29;926;-60
2021/08/09 02:39:00;;;;;;;;;;;;;;;16.21;76.13;99808.41;4951210;29;852;-60
2021/08/09 02:41:26;;;;;;;;;;;;;;;16.18;76.20;99806.50;4952360;28;1943;-60
2021/08/09 02:43:53;;;;;;;;;;;;;;;16.17;76.42;99802.13;4954874;29;1066;-60
2021/08/09 02:46:20;;;;;;;;;;;;;;;16.18;76.26;99802.94;4954836;29;846;-60
2021/08/09 02:48:48;;;;;;;;;;;;;;;16.16;76.38;99806.16;4954854;29;907;-60
2021/08/09 02:51:18;;;;;;;;;;;;;;;16.16;76.23;99810.97;4954708;29;958;-60
2021/08/09 02:53:48;;;;;;;;;;;;;;;16.15;76.33;99806.59;4954828;29;848;-60
2021/08/09 02:56:15;;;;;;;;;;;;;;;16.16;76.30;99816.53;4954959;29;1082;-60
2021/08/09 02:58:41;;;;;;;;;;;;;;;16.16;76.47;99811.75;4954603;29;819;-60
2021/08/09 03:01:08;;;;;;;;;;;;;;;16.19;76.34;99813.63;4954618;29;1891;-60
2021/08/09 03:03:36;;;;;;;;;;;;;;;16.21;76.35;99816.00;5000324;28;954;-60
2021/08/09 03:06:03;;;;;;;;;;;;;;;16.20;76.49;99809.63;5014989;28;858;-60
2021/08/09 03:08:30;;;;;;;;;;;;;;;16.17;76.49;99807.72;5014913;28;849;-60
2021/08/09 03:10:57;;;;;;;;;;;;;;;16.15;76.57;99812.16;5014776;28;922;-60
2021/08/09 03:13:25;;;;;;;;;;;;;;;16.12;76.54;99813.84;5014693;28;880;-60
2021/08/09 03:15:52;;;;;;;;;;;;;;;16.09;76.92;99815.50;5014606;28;1230;-60
2021/08/09 03:18:19;;;;;;;;;;;;;;;16.12;76.83;99811.06;5014701;28;823;-60
2021/08/09 03:20:46;;;;;;;;;;;;;;;16.14;76.82;99803.03;5014578;28;1995;-60
2021/08/09 03:23:13;;;;;;;;;;;;;;;16.19;76.62;99807.28;5014453;28;927;-60
2021/08/09 03:25:39;;;;;;;;;;;;;;;16.23;76.54;99817.09;5014659;28;867;-60
2021/08/09 03:28:09;;;;;;;;;;;;;;;16.27;76.74;99822.59;5013178;28;1338;-60
2021/08/09 03:30:35;;;;;;;;;;;;;;;16.28;76.56;99821.34;5014423;28;928;-60
2021/08/09 03:33:02;;;;;;;;;;;;;;;16.27;76.46;99825.38;5013166;28;1607;-60
2021/08/09 03:35:28;;;;;;;;;;;;;;;16.27;76.34;99817.78;5014366;28;822;-60
2021/08/09 03:37:54;;;;;;;;;;;;;;;16.30;76.39;99824.50;5014334;28;811;-60
2021/08/09 03:40:21;;;;;;;;;;;;;;;16.32;76.44;99830.41;5014242;28;1886;-60
2021/08/09 03:42:47;;;;;;;;;;;;;;;16.36;76.54;99831.09;5014262;28;834;-60
2021/08/09 03:45:14;;;;;;;;;;;;;;;16.41;76.34;99829.75;5014387;28;870;-60
2021/08/09 03:47:40;;;;;;;;;;;;;;;16.43;76.25;99828.13;5012982;28;2561;-60
2021/08/09 03:50:07;;;;;;;;;;;;;;;16.51;76.09;99832.28;5014093;28;905;-60
2021/08/09 03:52:34;;;;;;;;;;;;;;;16.62;75.83;99833.94;5012493;28;1270;-60
2021/08/09 03:55:01;;;;;;;;;;;;;;;16.70;75.76;99826.94;5014026;28;862;-60
2021/08/09 03:57:27;;;;;;;;;;;;;;;16.77;75.36;99829.53;5014018;28;917;-60
2021/08/09 03:59:54;;;;;;;;;;;;;;;16.86;75.26;99835.25;5012675;28;1882;-60
2021/08/09 04:02:28;;;;;;;;;;;;;;;16.99;74.87;99832.47;5013899;28;900;-60
2021/08/09 04:04:57;;;;;;;;;;;;;;;17.14;74.57;99839.19;5013853;28;834;-60
2021/08/09 04:07:24;;;;;;;;;;;;;;;17.29;74.20;99845.09;5013767;28;900;-60
2021/08/09 04:09:51;;;;;;;;;;;;;;;17.45;73.68;99844.19;5013635;28;907;-60
2021/08/09 04:12:18;;;;;;;;;;;;;;;17.57;73.11;99845.41;5013628;28;897;-60
2021/08/09 04:14:44;;;;;;;;;;;;;;;17.70;72.60;99846.16;5012394;28;1176;-60
2021/08/09 04:17:11;;;;;;;;;;;;;;;17.82;72.40;99841.81;5013421;28;1252;-60
2021/08/09 04:19:37;;;;;;;;;;;;;;;17.93;71.92;99847.03;5013390;28;1914;-60
2021/08/09 04:22:04;;;;;;;;;;;;;;;18.02;71.48;99841.53;5013364;28;878;-60
2021/08/09 04:24:31;;;;;;;;;;;;;;;18.12;71.29;99842.38;5013423;28;880;-60
2021/08/09 04:26:57;;;;;;;;;;;;;;;18.19;70.87;99841.34;5013722;28;870;-60
2021/08/09 04:29:24;;;;;;;;;;;;;;;18.22;70.64;99841.22;5013362;28;854;-60
2021/08/09 04:31:50;;;;;;;;;;;;;;;18.29;70.44;99843.75;5013248;28;827;-60
2021/08/09 04:34:17;;;;;;;;;;;;;;;18.36;70.40;99851.88;5013257;28;822;-60
2021/08/09 04:36:45;;;;;;;;;;;;;;;18.43;70.10;99848.06;5013200;28;885;-60
2021/08/09 04:39:12;;;;;;;;;;;;;;;18.52;69.96;99848.13;5013064;28;1894;-60
2021/08/09 04:41:38;;;;;;;;;;;;;;;18.66;69.67;99852.41;5013465;28;791;-60
2021/08/09 04:44:07;;;;;;;;;;;;;;;18.76;69.25;99851.22;5013018;28;874;-60
2021/08/09 04:46:34;;;;;;;;;;;;;;;18.83;69.05;99847.41;5012907;28;1045;-59
2021/08/09 04:49:00;;;;;;;;;;;;;;;18.89;68.82;99842.00;5012959;28;1022;-59
2021/08/09 04:54:01;;;;;;;;;;;;;;;19.09;68.36;99848.00;5030247;23;1724;-60
2021/08/09 04:56:28;;;;;;;;;;;;;;;19.26;68.10;99844.94;5011588;28;1581;-60
2021/08/09 04:58:54;;;;;;;;;;;;;;;19.40;67.53;99852.03;5012970;28;802;-60
2021/08/09 05:01:21;;;;;;;;;;;;;;;19.52;67.38;99856.72;5012698;28;1914;-60
2021/08/09 05:03:47;;;;;;;;;;;;;;;19.64;66.93;99855.81;5012557;28;869;-60
2021/08/09 05:06:14;;;;;;;;;;;;;;;19.84;66.53;99865.84;5012713;28;877;-60
2021/08/09 05:16:22;;;;;;;;;;;;;;;21.20;63.03;99848.53;5004655;28;1346;-59
2021/08/09 05:18:50;;;;;;;;;;;;;;;21.98;60.54;99841.09;5012685;28;874;-59
2021/08/09 05:21:17;;;;;;;;;;;;;;;23.10;58.05;99841.59;5012448;28;1942;-60
2021/08/09 05:23:47;;;;;;;;;;;;;;;24.09;55.49;99839.16;5012446;28;842;-60
2021/08/09 05:26:15;;;;;;;;;;;;;;;25.02;53.24;99853.16;5012479;28;991;-60
2021/08/09 05:28:42;;;;;;;;;;;;;;;26.00;50.92;99856.13;5012626;28;826;-61
2021/08/09 05:31:08;;;;;;;;;;;;;;;26.78;48.92;99844.25;5012267;28;896;-60
2021/08/09 05:33:35;;;;;;;;;;;;;;;27.18;47.86;99841.38;5012287;28;803;-60
2021/08/09 05:36:03;;;;;;;;;;;;;;;27.70;46.17;99852.16;5012281;28;928;-60
2021/08/09 05:38:30;;;;;;;;;;;;;;;27.81;45.84;99842.81;5012103;28;814;-60
2021/08/09 05:40:56;;;;;;;;;;;;;;;28.05;45.64;99839.38;5011784;28;1953;-61
2021/08/09 05:43:23;;;;;;;;;;;;;;;28.85;44.08;99846.16;5012274;28;925;-60
2021/08/09 05:45:50;;;;;;;;;;;;;;;29.72;42.07;99840.66;5012155;28;885;-61
2021/08/09 05:48:17;;;;;;;;;;;;;;;30.51;40.67;99840.44;5011990;28;881;-61
2021/08/09 05:50:43;;;;;;;;;;;;;;;31.28;39.42;99835.28;5011924;28;806;-60
2021/08/09 05:53:09;;;;;;;;;;;;;;;32.07;37.98;99833.75;5011603;28;807;-60
2021/08/09 05:55:36;;;;;;;;;;;;;;;32.25;36.89;99835.72;5012187;28;802;-60
2021/08/09 05:58:03;;;;;;;;;;;;;;;32.08;36.64;99838.94;5011706;28;826;-61
2021/08/09 06:00:30;;;;;;;;;;;;;;;32.03;36.11;99845.56;5011659;28;1881;-60
2021/08/09 06:02:56;;;;;;;;;;;;;;;32.25;36.18;99841.44;5011837;28;858;-60
2021/08/09 06:05:23;;;;;;;;;;;;;;;32.87;35.04;99842.09;5012098;28;799;-61
2021/08/09 06:07:50;;;;;;;;;;;;;;;33.35;34.00;99836.94;5011841;28;830;-61
2021/08/09 06:10:17;;;;;;;;;;;;;;;33.50;33.57;99839.94;5011856;28;901;-61
2021/08/09 06:12:44;;;;;;;;;;;;;;;34.08;32.62;99837.78;5011829;28;892;-61
2021/08/09 06:15:10;;;;;;;;;;;;;;;34.27;32.29;99846.09;5015908;28;1365;-61
2021/08/09 06:17:38;;;;;;;;;;;;;;;34.60;31.82;99845.59;5024339;28;1320;-60
2021/08/09 06:20:05;;;;;;;;;;;;;;;34.92;30.74;99859.44;5015387;28;1977;-61
2021/08/09 06:22:31;;;;;;;;;;;;;;;34.76;30.98;99856.56;5015836;28;879;-61
2021/08/09 06:24:58;;;;;;;;;;;;;;;34.85;30.75;99854.47;5015658;28;802;-61
2021/08/09 06:27:24;;;;;;;;;;;;;;;35.20;30.66;99849.13;5015878;28;819;-61
2021/08/09 06:29:51;;;;;;;;;;;;;;;35.55;29.87;99836.66;5015813;28;873;-61
2021/08/09 06:32:18;;;;;;;;;;;;;;;35.61;29.21;99855.78;5015997;28;866;-61
2021/08/09 06:34:45;;;;;;;;;;;;;;;35.84;29.83;99850.75;5015672;28;815;-61
2021/08/09 06:37:12;;;;;;;;;;;;;;;35.89;29.14;99840.38;5015791;28;869;-61
2021/08/09 06:39:39;;;;;;;;;;;;;;;35.58;29.08;99843.34;5015531;28;1885;-61
2021/08/09 06:42:05;;;;;;;;;;;;;;;35.54;29.18;99852.34;5015566;28;878;-61
2021/08/09 06:44:33;;;;;;;;;;;;;;;35.52;29.43;99848.53;5015535;28;854;-61
2021/08/09 06:47:00;;;;;;;;;;;;;;;35.84;28.83;99847.88;5015749;28;870;-61
2021/08/09 06:49:27;;;;;;;;;;;;;;;35.68;28.79;99850.06;5015484;28;818;-61
2021/08/09 06:51:53;;;;;;;;;;;;;;;35.84;28.79;99847.13;5015090;28;944;-60
2021/08/09 06:54:24;;;;;;;;;;;;;;;36.07;29.13;99849.91;5015522;28;857;-60
2021/08/09 06:56:51;;;;;;;;;;;;;;;36.62;28.41;99851.97;5014773;28;953;-61
2021/08/09 06:59:18;;;;;;;;;;;;;;;36.73;28.10;99854.41;5014904;28;1947;-61
2021/08/09 07:01:45;;;;;;;;;;;;;;;36.76;28.21;99850.31;5014953;28;905;-61
2021/08/09 07:04:11;;;;;;;;;;;;;;;36.63;28.19;99850.63;5015048;28;814;-60
2021/08/09 07:06:38;;;;;;;;;;;;;;;36.34;28.08;99864.59;5014888;28;870;-61
2021/08/09 07:09:04;;;;;;;;;;;;;;;36.50;27.80;99866.03;5015038;28;826;-61
2021/08/09 07:11:31;;;;;;;;;;;;;;;36.77;26.98;99865.50;5014950;28;889;-61
2021/08/09 07:13:58;;;;;;;;;;;;;;;36.93;27.56;99860.38;5014956;28;1030;-61
2021/08/09 07:16:25;;;;;;;;;;;;;;;36.82;27.72;99864.50;5014472;28;1355;-61
2021/08/09 07:18:53;;;;;;;;;;;;;;;36.98;28.08;99868.03;5014823;28;904;-61
2021/08/09 07:21:20;;;;;;;;;;;;;;;37.54;26.55;99862.00;5014771;28;1973;-61
2021/08/09 07:23:47;;;;;;;;;;;;;;;37.77;26.83;99862.53;5014680;28;846;-61
2021/08/09 07:26:13;;;;;;;;;;;;;;;38.39;26.32;99859.66;5014619;28;877;-61
2021/08/09 07:28:40;;;;;;;;;;;;;;;38.29;26.02;99863.88;5014072;28;849;-60
2021/08/09 07:31:07;;;;;;;;;;;;;;;38.36;25.82;99866.63;5014469;28;913;-61
2021/08/09 07:33:34;;;;;;;;;;;;;;;38.39;25.41;99856.78;5014475;28;830;-60
2021/08/09 07:36:04;;;;;;;;;;;;;;;37.91;25.75;99859.31;5014436;28;838;-61
2021/08/09 07:38:32;;;;;;;;;;;;;;;37.96;24.59;99840.97;5014619;28;896;-61
2021/08/09 07:40:59;;;;;;;;;;;;;;;38.05;25.06;99851.09;5014262;28;1902;-61
2021/08/09 07:43:26;;;;;;;;;;;;;;;38.20;24.86;99850.91;5014134;28;861;-61
2021/08/09 07:45:52;;;;;;;;;;;;;;;38.30;24.05;99839.41;5014239;28;831;-61
2021/08/09 07:48:18;;;;;;;;;;;;;;;38.22;24.08;99836.63;5014089;28;945;-61
2021/08/09 07:50:45;;;;;;;;;;;;;;;38.64;23.83;99841.44;5014183;28;889;-61
2021/08/09 07:53:12;;;;;;;;;;;;;;;39.05;23.54;99838.91;5014356;28;798;-61
2021/08/09 07:55:39;;;;;;;;;;;;;;;39.24;23.06;99837.41;5013980;28;913;-61
2021/08/09 07:58:05;;;;;;;;;;;;;;;39.35;22.49;99836.84;5014103;28;941;-62
2021/08/09 08:00:32;;;;;;;;;;;;;;;39.30;22.56;99837.88;5013981;28;1886;-61
2021/08/09 08:02:59;;;;;;;;;;;;;;;39.59;22.52;99832.91;5014064;28;854;-61
2021/08/09 08:05:25;;;;;;;;;;;;;;;39.57;22.27;99834.91;5013824;28;962;-62
2021/08/09 08:07:50;;;;;;;;;;;;;;;39.87;21.86;99830.66;5013882;28;892;-62
2021/08/09 08:10:17;;;;;;;;;;;;;;;40.11;21.52;99833.81;5014195;28;874;-62
2021/08/09 08:12:44;;;;;;;;;;;;;;;40.32;21.03;99830.31;5014003;28;1398;-61
2021/08/09 08:15:10;;;;;;;;;;;;;;;40.38;20.77;99825.72;5014186;28;1447;-62
2021/08/09 08:17:37;;;;;;;;;;;;;;;40.10;19.84;99821.50;5013592;28;1329;-63
2021/08/09 08:20:05;;;;;;;;;;;;;;;39.70;20.25;99825.00;5013534;28;1970;-62
2021/08/09 08:22:31;;;;;;;;;;;;;;;39.25;20.41;99822.34;5014261;28;763;-62
2021/08/09 08:24:58;;;;;;;;;;;;;;;39.41;19.98;99822.84;5013533;28;874;-61
2021/08/09 08:27:24;;;;;;;;;;;;;;;39.97;19.76;99825.63;5013418;28;819;-61
2021/08/09 08:29:52;;;;;;;;;;;;;;;40.72;20.11;99835.38;5013571;28;858;-62
2021/08/09 08:32:18;;;;;;;;;;;;;;;40.81;19.36;99833.81;5013628;28;834;-61
2021/08/09 08:34:45;;;;;;;;;;;;;;;40.95;20.01;99828.22;5013182;28;819;-61
2021/08/09 08:37:12;;;;;;;;;;;;;;;41.11;20.09;99823.56;5013295;28;861;-61
2021/08/09 08:39:39;;;;;;;;;;;;;;;40.79;20.15;99822.81;5012171;28;1953;-62
2021/08/09 08:42:05;;;;;;;;;;;;;;;40.33;20.18;99829.69;5013278;28;850;-62
2021/08/09 08:44:32;;;;;;;;;;;;;;;40.25;20.29;99834.09;5013368;28;831;-62
2021/08/09 08:46:59;;;;;;;;;;;;;;;39.84;20.34;99831.88;5013054;28;878;-62
2021/08/09 08:49:26;;;;;;;;;;;;;;;39.56;20.55;99828.34;5012966;28;928;-61
2021/08/09 08:51:53;;;;;;;;;;;;;;;39.80;20.25;99831.56;5013075;28;837;-62
2021/08/09 08:54:20;;;;;;;;;;;;;;;39.88;20.80;99829.28;5012937;28;906;-62
2021/08/09 08:56:47;;;;;;;;;;;;;;;39.88;19.76;99829.28;5012890;28;811;-62
2021/08/09 08:59:15;;;;;;;;;;;;;;;40.01;20.57;99828.81;5013176;28;795;-61
2021/08/09 09:01:44;;;;;;;;;;;;;;;40.24;20.35;99827.53;5012689;28;1969;-61
2021/08/09 09:04:24;;;;;;;;;;;;;;;39.98;20.02;99818.44;5011796;28;1301;-62
2021/08/09 09:07:00;;;;;;;;;;;;;;;39.60;20.76;99822.88;5012688;28;955;-62
2021/08/09 09:09:28;;;;;;;;;;;;;;;39.61;20.29;99827.28;5012808;28;909;-62
2021/08/09 09:11:56;;;;;;;;;;;;;;;39.57;20.67;99823.31;5012578;28;827;-61
2021/08/09 09:14:32;;;;;;;;;;;;;;;39.64;20.95;99830.31;5011316;28;1880;-62
2021/08/09 09:16:59;;;;;;;;;;;;;;;39.84;20.91;99822.41;5012317;28;1220;-62
2021/08/09 09:19:33;;;;;;;;;;;;;;;39.93;20.67;99813.75;5012425;28;1926;-62
2021/08/09 09:22:01;;;;;;;;;;;;;;;39.52;21.30;99827.25;5012377;28;870;-62
2021/08/09 09:24:28;;;;;;;;;;;;;;;39.32;21.45;99817.78;5012692;28;830;-62
2021/08/09 09:26:56;;;;;;;;;;;;;;;39.35;21.44;99817.34;5012597;28;1057;-62
2021/08/09 09:29:24;;;;;;;;;;;;;;;38.87;21.55;99815.06;5012995;28;819;-62
2021/08/09 09:31:51;;;;;;;;;;;;;;;38.52;22.25;99812.38;5012472;28;858;-62
2021/08/09 09:34:20;;;;;;;;;;;;;;;38.84;21.98;99812.66;5012403;28;771;-62
2021/08/09 09:36:49;;;;;;;;;;;;;;;38.83;21.93;99808.97;5012423;28;806;-62
2021/08/09 09:39:31;;;;;;;;;;;;;;;38.11;22.26;99805.41;5012123;28;901;-61
2021/08/09 09:41:59;;;;;;;;;;;;;;;37.90;22.65;99805.88;5012388;28;791;-62
2021/08/09 09:44:30;;;;;;;;;;;;;;;38.16;23.18;99802.28;5012368;28;853;-61
2021/08/09 09:47:17;;;;;;;;;;;;;;;38.31;21.80;99795.53;5012097;28;830;-62
2021/08/09 09:49:44;;;;;;;;;;;;;;;38.07;22.26;99802.19;5011824;28;1504;-62
2021/08/09 09:52:27;;;;;;;;;;;;;;;38.11;23.04;99806.19;5011934;28;952;-61
2021/08/09 09:54:55;;;;;;;;;;;;;;;38.18;22.79;99798.78;5012276;28;826;-61
2021/08/09 09:57:21;;;;;;;;;;;;;;;37.62;22.44;99787.75;5012553;28;775;-61
2021/08/09 09:59:48;;;;;;;;;;;;;;;36.99;23.28;99795.44;5012142;28;1882;-63
2021/08/09 10:02:15;;;;;;;;;;;;;;;36.30;23.92;99793.06;5012176;28;791;-62
2021/08/09 10:04:42;;;;;;;;;;;;;;;36.24;24.16;99786.00;5011936;28;822;-62
2021/08/09 10:07:08;;;;;;;;;;;;;;;36.29;24.38;99785.00;5011929;28;807;-63
2021/08/09 10:09:36;;;;;;;;;;;;;;;36.37;24.46;99789.38;5011725;28;831;-61
2021/08/09 10:12:04;;;;;;;;;;;;;;;36.36;24.14;99798.56;5011727;28;886;-62
2021/08/09 10:14:32;;;;;;;;;;;;;;;36.34;24.07;99784.78;5012391;28;959;-62
2021/08/09 10:16:59;;;;;;;;;;;;;;;36.25;23.71;99785.41;5011842;28;1397;-63
2021/08/09 10:19:26;;;;;;;;;;;;;;;36.16;24.48;99798.31;5011947;28;2029;-62
2021/08/09 10:21:53;;;;;;;;;;;;;;;36.51;23.88;99783.31;5011941;28;843;-62
2021/08/09 10:24:39;;;;;;;;;;;;;;;36.43;24.23;99783.38;5012643;28;771;-63
2021/08/09 10:27:06;;;;;;;;;;;;;;;36.12;24.18;99794.28;5011884;28;902;-62
2021/08/09 10:29:32;;;;;;;;;;;;;;;35.95;24.08;99800.69;5010341;28;1190;-62
2021/08/09 10:32:21;;;;;;;;;;;;;;;36.06;24.40;99799.47;5011558;28;819;-63
2021/08/09 10:34:48;;;;;;;;;;;;;;;35.94;24.28;99794.19;5011536;28;882;-62
2021/08/09 10:37:15;;;;;;;;;;;;;;;35.84;24.20;99804.75;5011498;28;866;-63
2021/08/09 10:39:47;;;;;;;;;;;;;;;36.07;24.67;99792.41;5011322;28;1882;-62
2021/08/09 10:42:32;;;;;;;;;;;;;;;36.37;24.35;99777.09;5011597;28;826;-62
2021/08/09 10:44:59;;;;;;;;;;;;;;;36.94;23.36;99781.28;5011724;28;850;-62
2021/08/09 10:47:44;;;;;;;;;;;;;;;36.82;23.32;99786.00;5011774;28;850;-62
2021/08/09 10:50:32;;;;;;;;;;;;;;;37.04;24.29;99769.88;5011429;28;877;-62
2021/08/09 10:52:58;;;;;;;;;;;;;;;37.37;23.08;99776.28;5007503;28;1100;-62
2021/08/09 10:55:29;;;;;;;;;;;;;;;37.17;22.60;99781.88;5011399;28;826;-63
2021/08/09 10:57:56;;;;;;;;;;;;;;;36.87;22.25;99767.72;5011690;28;823;-62
2021/08/09 11:00:42;;;;;;;;;;;;;;;36.86;22.88;99761.19;5011588;28;1886;-62
2021/08/09 11:03:10;;;;;;;;;;;;;;;36.89;22.77;99770.75;5013706;28;810;-62
2021/08/09 11:05:36;;;;;;;;;;;;;;;36.94;22.19;99761.13;5015358;28;830;-62
2021/08/09 11:08:15;;;;;;;;;;;;;;;36.93;22.64;99771.88;5013676;28;1209;-62
2021/08/09 11:11:00;;;;;;;;;;;;;;;36.91;22.84;99765.19;5014918;28;783;-62
2021/08/09 11:13:27;;;;;;;;;;;;;;;36.97;23.34;99775.09;5014854;28;815;-62
2021/08/09 11:15:58;;;;;;;;;;;;;;;37.14;23.77;99757.09;5015141;28;1058;-62
2021/08/09 11:18:27;;;;;;;;;;;;;;;37.25;23.09;99767.38;5014538;28;1386;-62
2021/08/09 11:21:03;;;;;;;;;;;;;;;37.29;22.54;99764.06;5014701;28;1906;-62
2021/08/09 11:23:39;;;;;;;;;;;;;;;37.74;21.83;99776.44;5014682;28;932;-62
2021/08/09 11:26:06;;;;;;;;;;;;;;;37.73;21.42;99764.16;5014659;28;870;-63
2021/08/09 11:28:33;;;;;;;;;;;;;;;37.62;20.99;99769.69;5014574;28;910;-63
2021/08/09 11:31:00;;;;;;;;;;;;;;;37.34;21.32;99768.81;5014405;28;903;-63
2021/08/09 11:33:35;;;;;;;;;;;;;;;37.58;21.43;99770.13;5014441;28;807;-63
2021/08/09 11:36:02;;;;;;;;;;;;;;;37.42;21.09;99763.72;5013095;28;1238;-63
2021/08/09 11:38:39;;;;;;;;;;;;;;;37.35;21.44;99765.34;5014317;28;881;-64
2021/08/09 11:41:10;;;;;;;;;;;;;;;37.39;21.06;99767.81;5014228;28;1882;-62
2021/08/09 11:43:37;;;;;;;;;;;;;;;37.73;20.96;99754.75;5014278;28;926;-63
2021/08/09 11:46:06;;;;;;;;;;;;;;;37.98;20.57;99743.84;5014230;28;814;-63
2021/08/09 11:48:33;;;;;;;;;;;;;;;38.16;20.50;99743.81;5012878;28;1360;-63
2021/08/09 11:51:03;;;;;;;;;;;;;;;38.41;20.51;99755.16;5014159;28;822;-63
2021/08/09 11:53:29;;;;;;;;;;;;;;;38.29;20.95;99752.06;5014129;28;897;-63
2021/08/09 11:56:15;;;;;;;;;;;;;;;38.82;20.77;99749.69;5014047;28;887;-62
2021/08/09 11:58:42;;;;;;;;;;;;;;;39.09;19.69;99748.84;5014084;28;885;-63
2021/08/09 12:01:09;;;;;;;;;;;;;;;38.67;20.28;99738.44;5012611;28;1875;-63
2021/08/09 12:03:36;;;;;;;;;;;;;;;38.57;20.50;99744.16;5013860;28;928;-63
2021/08/09 12:06:21;;;;;;;;;;;;;;;38.53;20.36;99738.06;5013893;28;850;-62
2021/08/09 12:08:52;;;;;;;;;;;;;;;38.99;20.44;99729.38;5013769;28;787;-62
2021/08/09 12:11:22;;;;;;;;;;;;;;;39.06;19.63;99741.41;5013676;28;815;-62
2021/08/09 12:14:00;;;;;;;;;;;;;;;38.89;19.91;99733.59;5013757;28;1026;-62
2021/08/09 12:16:27;;;;;;;;;;;;;;;39.33;20.03;99718.91;5013451;28;1251;-63
2021/08/09 12:18:54;;;;;;;;;;;;;;;39.29;19.19;99732.31;5013632;28;811;-63
2021/08/09 12:21:21;;;;;;;;;;;;;;;38.98;19.60;99732.88;5013428;28;1975;-63
2021/08/09 12:23:52;;;;;;;;;;;;;;;38.99;20.26;99732.28;5012273;28;1271;-60
2021/08/09 12:26:28;;;;;;;;;;;;;;;39.23;20.21;99726.81;5013501;28;830;-63
2021/08/09 12:28:55;;;;;;;;;;;;;;;39.48;19.95;99731.56;5013833;28;818;-63
2021/08/09 12:31:34;;;;;;;;;;;;;;;39.34;19.55;99729.09;5013440;28;822;-63
2021/08/09 12:34:05;;;;;;;;;;;;;;;39.73;19.50;99731.22;5013305;28;850;-62
2021/08/09 12:36:33;;;;;;;;;;;;;;;39.93;19.23;99732.75;5013259;28;862;-62
2021/08/09 12:38:59;;;;;;;;;;;;;;;40.06;18.92;99724.94;5013152;28;838;-63
2021/08/09 12:41:27;;;;;;;;;;;;;;;40.15;18.59;99712.56;5013085;28;1964;-63
2021/08/09 12:43:54;;;;;;;;;;;;;;;40.26;18.91;99716.94;5013140;28;798;-63
2021/08/09 12:46:21;;;;;;;;;;;;;;;40.58;18.86;99707.66;5013136;28;857;-63
2021/08/09 12:48:51;;;;;;;;;;;;;;;40.74;18.47;99710.19;5013094;28;865;-63
2021/08/09 12:51:18;;;;;;;;;;;;;;;40.81;18.43;99712.13;5013026;28;846;-63
2021/08/09 12:53:46;;;;;;;;;;;;;;;40.86;19.34;99708.13;5013268;28;819;-63
2021/08/09 12:56:13;;;;;;;;;;;;;;;40.70;20.39;99709.91;5013447;28;754;-63
2021/08/09 12:58:40;;;;;;;;;;;;;;;40.39;20.34;99699.84;5013263;28;834;-63
2021/08/09 13:01:07;;;;;;;;;;;;;;;39.98;20.98;99708.50;5011877;28;1949;-63
2021/08/09 13:03:33;;;;;;;;;;;;;;;39.71;21.21;99710.81;5013093;28;869;-63
2021/08/09 13:06:04;;;;;;;;;;;;;;;39.14;21.56;99711.00;5013069;28;866;-63
2021/08/09 13:08:31;;;;;;;;;;;;;;;38.63;22.46;99706.34;5012704;28;783;-63
2021/08/09 13:10:59;;;;;;;;;;;;;;;38.69;22.38;99709.72;5012667;28;846;-63
2021/08/09 13:13:27;;;;;;;;;;;;;;;38.79;22.67;99713.34;5012789;28;946;-62
2021/08/09 13:15:53;;;;;;;;;;;;;;;38.89;22.72;99716.28;5013000;28;960;-63
2021/08/09 13:18:22;;;;;;;;;;;;;;;38.75;22.38;99718.81;5012344;28;1260;-63
2021/08/09 13:20:49;;;;;;;;;;;;;;;38.47;22.59;99718.09;5012439;28;1910;-64